createdAt,value
2022-11-21T00:12:04.153Z,6.60
2022-11-21T00:17:52.656Z,6.60
2022-11-21T00:21:16.107Z,6.30
2022-11-21T00:24:26.923Z,6.40
2022-11-21T00:27:28.060Z,6.30
2022-11-21T00:30:03.796Z,6.30
2022-11-21T00:32:53.043Z,6.40
2022-11-21T00:36:04.232Z,6.40
2022-11-21T00:43:05.121Z,6.60
2022-11-21T00:49:27.872Z,6.60
2022-11-21T00:52:22.330Z,6.70
2022-11-21T00:55:06.508Z,6.70
2022-11-21T00:57:38.107Z,6.50
2022-11-21T01:00:15.302Z,6.50
2022-11-21T01:02:53.453Z,6.50
2022-11-21T01:11:00.456Z,6.30
2022-11-21T01:13:50.337Z,6.50
2022-11-21T01:16:45.602Z,6.50
2022-11-21T01:55:27.655Z,6.80
2022-11-21T01:59:16.983Z,6.60
2022-11-21T02:01:49.324Z,6.80
2022-11-21T02:04:28.913Z,6.90
2022-11-21T02:07:03.056Z,6.90
2022-11-21T02:09:34.509Z,7.00
2022-11-21T02:12:09.377Z,6.90
2022-11-21T02:14:43.921Z,6.90
2022-11-21T02:17:13.284Z,6.70
2022-11-21T02:19:52.868Z,6.60
2022-11-21T02:22:35.326Z,6.70
2022-11-21T02:25:12.117Z,6.90
2022-11-21T02:28:06.683Z,6.90
2022-11-21T04:24:06.117Z,6.00
2022-11-21T05:05:16.423Z,6.40
2022-11-21T05:09:16.181Z,6.40
2022-11-21T05:17:57.492Z,6.60
2022-11-21T05:19:56.813Z,6.50
2022-11-21T05:23:09.950Z,6.50
2022-11-21T05:26:43.558Z,6.50
2022-11-21T05:30:18.119Z,6.50
2022-11-21T05:42:50.048Z,6.30
2022-11-21T05:45:23.180Z,6.40
2022-11-21T05:47:57.873Z,6.60
2022-11-21T05:50:31.778Z,6.70
2022-11-21T05:53:42.891Z,6.60
2022-11-21T05:56:14.143Z,6.50
2022-11-21T05:58:45.409Z,6.50
2022-11-21T06:01:16.414Z,6.40
2022-11-21T06:03:44.338Z,6.50
2022-11-21T06:06:20.917Z,6.40
2022-11-21T07:39:22.612Z,6.70
2022-11-21T07:43:00.840Z,6.70
2022-11-21T07:45:04.809Z,6.90
2022-11-21T07:47:40.483Z,6.80
2022-11-21T07:50:17.581Z,6.70
2022-11-21T07:52:47.648Z,6.90
2022-11-21T07:55:18.283Z,6.80
2022-11-21T07:57:47.037Z,6.60
2022-11-21T08:00:18.278Z,6.60
2022-11-21T08:02:48.901Z,6.80
2022-11-21T08:05:17.933Z,6.90
2022-11-21T08:07:46.889Z,6.90
2022-11-21T08:10:20.511Z,7.00
2022-11-21T08:12:53.715Z,7.00
2022-11-21T08:15:22.511Z,7.00
2022-11-21T08:17:51.310Z,7.20
2022-11-21T08:20:20.158Z,7.60
2022-11-21T08:25:59.419Z,8.00
2022-11-21T08:28:25.485Z,9.20
2022-11-21T08:31:29.469Z,10.70
2022-11-21T08:34:01.474Z,11.20
2022-11-21T08:36:32.772Z,11.10
2022-11-21T08:39:31.998Z,10.70
2022-11-21T08:42:16.102Z,10.50
2022-11-21T08:45:22.867Z,10.00
2022-11-21T08:47:57.453Z,9.60
2022-11-21T08:53:18.347Z,9.20
2022-11-21T08:55:47.171Z,8.90
2022-11-21T08:58:15.943Z,8.90
2022-11-21T09:00:44.933Z,8.90
2022-11-21T09:03:20.505Z,8.90
2022-11-21T09:05:51.915Z,8.80
2022-11-21T09:08:21.005Z,8.70
2022-11-21T09:10:49.958Z,8.50
2022-11-21T09:13:19.103Z,8.50
2022-11-21T09:16:05.479Z,8.40
2022-11-21T09:18:36.033Z,8.60
2022-11-21T09:21:04.881Z,8.50
2022-11-21T09:23:33.712Z,8.90
2022-11-21T09:26:02.695Z,9.50
2022-11-21T09:28:31.511Z,9.80
2022-11-21T09:31:00.472Z,9.90
2022-11-21T09:33:29.433Z,9.60
2022-11-21T09:36:03.002Z,9.20
2022-11-21T09:38:32.601Z,9.10
2022-11-21T09:41:42.549Z,9.00
2022-11-21T09:44:34.064Z,8.90
2022-11-21T09:47:19.527Z,8.70
2022-11-21T09:49:55.918Z,8.80
2022-11-21T09:52:36.814Z,8.80
2022-11-21T09:55:17.810Z,8.80
2022-11-21T09:57:50.346Z,9.20
2022-11-21T10:00:24.203Z,9.90
2022-11-21T10:02:54.487Z,10.10
2022-11-21T10:05:36.390Z,10.60
2022-11-21T10:08:22.290Z,11.40
2022-11-21T10:10:58.275Z,11.90
2022-11-21T10:13:46.450Z,12.20
2022-11-21T10:16:29.030Z,12.70
2022-11-21T10:19:28.980Z,13.50
2022-11-21T10:22:25.588Z,13.40
2022-11-21T10:25:04.623Z,13.10
2022-11-21T10:27:42.679Z,13.20
2022-11-21T10:30:18.935Z,14.20
2022-11-21T10:32:53.825Z,13.70
2022-11-21T10:35:26.830Z,12.70
2022-11-21T10:38:01.265Z,11.60
2022-11-21T10:40:41.096Z,11.20
2022-11-21T10:43:41.934Z,11.50
2022-11-21T10:46:11.407Z,13.10
2022-11-21T10:48:40.689Z,14.80
2022-11-21T10:51:37.966Z,14.80
2022-11-21T10:54:26.810Z,14.10
2022-11-21T10:57:03.734Z,13.40
2022-11-21T10:59:33.958Z,12.90
2022-11-21T11:02:23.832Z,12.50
2022-11-21T11:05:25.063Z,12.10
2022-11-21T11:08:09.605Z,11.70
2022-11-21T11:10:40.874Z,11.50
2022-11-21T11:13:51.366Z,11.30
2022-11-21T11:16:22.774Z,11.30
2022-11-21T11:19:01.526Z,13.10
2022-11-21T11:21:32.429Z,15.00
2022-11-21T11:24:27.526Z,16.40
2022-11-21T11:27:02.637Z,18.20
2022-11-21T11:29:35.714Z,19.60
2022-11-21T11:32:20.834Z,20.10
2022-11-21T11:35:01.368Z,20.40
2022-11-21T11:37:41.071Z,19.20
2022-11-21T11:40:25.449Z,17.70
2022-11-21T11:43:58.567Z,16.20
2022-11-21T11:46:59.841Z,14.80
2022-11-21T11:49:59.067Z,14.10
2022-11-21T11:52:34.243Z,14.40
2022-11-21T11:55:09.148Z,14.40
2022-11-21T11:57:40.035Z,15.10
2022-11-21T12:00:31.459Z,15.40
2022-11-21T12:03:12.503Z,15.00
2022-11-21T12:05:56.858Z,14.60
2022-11-21T12:08:42.305Z,15.70
2022-11-21T12:11:44.200Z,16.70
2022-11-21T12:14:55.555Z,18.20
2022-11-21T12:17:35.060Z,19.10
2022-11-21T12:20:18.948Z,19.90
2022-11-21T12:22:51.328Z,20.70
2022-11-21T12:25:25.597Z,21.20
2022-11-21T12:27:57.296Z,21.90
2022-11-21T12:31:02.827Z,23.10
2022-11-21T12:33:40.785Z,24.10
2022-11-21T12:36:28.270Z,24.30
2022-11-21T12:39:34.887Z,24.50
2022-11-21T12:42:33.581Z,24.90
2022-11-21T12:45:29.231Z,24.10
2022-11-21T12:48:38.703Z,22.50
2022-11-21T12:52:07.435Z,21.90
2022-11-21T12:55:01.718Z,23.20
2022-11-21T12:57:50.846Z,24.20
2022-11-21T13:00:31.035Z,24.70
2022-11-21T13:03:38.635Z,25.20
2022-11-21T13:06:15.969Z,25.60
2022-11-21T13:08:51.749Z,25.50
2022-11-21T13:11:58.452Z,24.60
2022-11-21T13:14:34.752Z,23.60
2022-11-21T13:17:30.976Z,21.60
2022-11-21T13:20:06.771Z,20.00
2022-11-21T13:22:54.657Z,18.40
2022-11-21T13:25:47.285Z,17.30
2022-11-21T13:28:40.297Z,16.70
2022-11-21T13:31:32.925Z,16.20
2022-11-21T13:34:03.252Z,16.00
2022-11-21T13:36:52.858Z,16.10
2022-11-21T13:39:32.319Z,15.90
2022-11-21T13:42:31.680Z,15.50
2022-11-21T13:45:21.739Z,15.30
2022-11-21T13:48:11.501Z,15.50
2022-11-21T13:51:35.287Z,15.50
2022-11-21T13:54:58.435Z,15.50
2022-11-21T13:57:45.105Z,16.30
2022-11-21T14:00:33.901Z,17.30
2022-11-21T14:03:40.431Z,17.30
2022-11-21T14:06:37.804Z,17.10
2022-11-21T14:09:25.169Z,16.40
2022-11-21T14:11:58.837Z,15.70
2022-11-21T14:14:36.862Z,15.10
2022-11-21T14:17:30.096Z,14.60
2022-11-21T14:20:02.254Z,14.00
2022-11-21T14:22:45.259Z,13.60
2022-11-21T14:25:20.391Z,13.30
2022-11-21T14:27:55.211Z,12.90
2022-11-21T14:30:35.061Z,12.70
2022-11-21T14:33:30.557Z,12.60
2022-11-21T14:36:07.395Z,12.30
2022-11-21T14:38:43.373Z,12.00
2022-11-21T14:41:34.279Z,11.70
2022-11-21T14:44:22.012Z,11.50
2022-11-21T14:47:03.418Z,11.30
2022-11-21T14:49:32.298Z,11.20
2022-11-21T14:52:19.545Z,11.00
2022-11-21T14:55:28.047Z,10.70
2022-11-21T14:57:45.854Z,10.40
2022-11-21T15:00:51.449Z,10.20
2022-11-21T15:03:22.698Z,10.00
2022-11-21T15:06:06.194Z,9.80
2022-11-21T15:11:36.536Z,9.60
2022-11-21T15:14:18.977Z,9.40
2022-11-21T15:16:50.783Z,9.00
2022-11-21T15:19:24.962Z,8.70
2022-11-21T15:21:57.313Z,8.40
2022-11-21T15:24:40.480Z,8.20
2022-11-21T15:27:33.981Z,7.90
2022-11-21T15:30:21.147Z,7.80
2022-11-21T15:33:11.615Z,7.70
2022-11-21T15:35:53.855Z,7.60
2022-11-21T15:38:33.100Z,7.60
2022-11-21T15:41:06.921Z,7.50
2022-11-21T15:43:42.098Z,7.50
2022-11-21T15:46:20.366Z,7.30
2022-11-21T15:48:51.300Z,7.20
2022-11-21T15:51:43.963Z,7.10
2022-11-21T15:54:14.749Z,7.20
2022-11-21T15:56:43.805Z,6.40
2022-11-21T15:59:12.423Z,6.30
2022-11-21T16:01:41.622Z,6.30
2022-11-21T16:04:13.239Z,6.40
2022-11-21T16:06:43.237Z,6.30
2022-11-21T16:09:11.773Z,6.10
2022-11-21T16:11:40.837Z,6.10
2022-11-21T16:14:14.359Z,6.10
2022-11-21T16:16:47.058Z,6.20
2022-11-21T16:19:17.069Z,6.30
2022-11-21T16:21:46.989Z,6.30
2022-11-21T16:24:15.537Z,6.10
2022-11-21T16:26:47.098Z,6.00
2022-11-21T16:29:15.722Z,6.00
2022-11-21T16:31:44.286Z,5.80
2022-11-21T16:34:12.974Z,5.60
2022-11-21T16:36:41.482Z,5.90
2022-11-21T16:39:17.771Z,5.70
2022-11-21T16:41:49.171Z,5.70
2022-11-21T16:44:18.334Z,5.80
2022-11-21T16:46:49.277Z,5.70
2022-11-21T16:49:17.781Z,5.70
2022-11-21T16:51:46.735Z,5.70
2022-11-21T16:54:17.159Z,5.70
2022-11-21T16:56:47.064Z,5.80
2022-11-21T16:59:15.807Z,5.80
2022-11-21T17:01:44.424Z,5.80
2022-11-21T17:04:17.213Z,5.80
2022-11-21T17:06:49.033Z,5.90
2022-11-21T17:09:19.508Z,5.70
2022-11-21T17:11:49.142Z,5.50
2022-11-21T17:14:18.056Z,5.50
2022-11-21T17:16:46.543Z,5.60
2022-11-21T17:19:16.377Z,5.50
2022-11-21T17:21:45.304Z,5.40
2022-11-21T17:24:14.704Z,5.40
2022-11-21T17:26:44.738Z,5.40
2022-11-21T17:29:13.374Z,5.60
2022-11-21T17:31:42.922Z,5.40
2022-11-21T17:34:11.672Z,5.40
2022-11-21T17:36:40.252Z,5.30
2022-11-21T17:39:08.792Z,5.40
2022-11-21T17:41:38.110Z,5.40
2022-11-21T17:44:08.672Z,5.40
2022-11-21T17:46:37.279Z,5.40
2022-11-21T17:49:05.929Z,5.40
2022-11-21T17:51:35.683Z,5.40
2022-11-21T17:54:05.196Z,5.40
2022-11-21T17:56:38.747Z,5.30
2022-11-21T17:59:14.128Z,5.00
2022-11-21T18:01:42.929Z,4.80
2022-11-21T18:04:27.277Z,4.80
2022-11-21T18:06:55.809Z,4.90
2022-11-21T18:09:24.283Z,4.90
2022-11-21T18:11:52.807Z,5.20
2022-11-21T18:14:22.788Z,5.00
2022-11-21T18:16:53.651Z,5.20
2022-11-21T18:19:22.448Z,5.20
2022-11-21T18:21:51.971Z,5.10
2022-11-21T18:24:20.608Z,5.20
2022-11-21T18:26:49.154Z,5.20
2022-11-21T18:29:35.611Z,5.20
2022-11-21T18:32:07.518Z,5.30
2022-11-21T18:34:36.221Z,5.30
2022-11-21T18:37:04.754Z,5.40
2022-11-21T18:39:33.544Z,5.30
2022-11-21T18:42:02.163Z,5.30
2022-11-21T18:44:30.668Z,5.30
2022-11-21T18:46:59.154Z,5.30
2022-11-21T18:49:29.394Z,5.40
2022-11-21T18:51:58.066Z,5.50
2022-11-21T18:54:26.821Z,5.50
2022-11-21T18:56:57.081Z,5.50
2022-11-21T18:59:25.670Z,5.50
2022-11-21T19:01:54.321Z,5.50
2022-11-21T19:04:23.538Z,5.50
2022-11-21T19:06:53.362Z,5.80
2022-11-21T19:09:21.844Z,5.50
2022-11-21T19:11:50.563Z,5.50
2022-11-21T19:14:19.046Z,5.50
2022-11-21T19:16:47.645Z,5.50
2022-11-21T19:19:34.630Z,5.60
2022-11-21T19:22:06.403Z,5.40
2022-11-21T19:24:35.018Z,5.40
2022-11-21T19:27:03.565Z,5.40
2022-11-21T19:29:33.111Z,5.50
2022-11-21T19:32:01.582Z,5.50
2022-11-21T19:34:30.095Z,5.50
2022-11-21T19:36:58.640Z,5.60
2022-11-21T19:39:30.589Z,5.70
2022-11-21T19:41:59.606Z,5.70
2022-11-21T19:44:28.105Z,5.70
2022-11-21T19:46:56.566Z,5.70
2022-11-21T19:49:25.546Z,5.80
2022-11-21T19:51:53.969Z,5.90
2022-11-21T19:54:22.514Z,5.80
2022-11-21T19:56:52.457Z,5.80
2022-11-21T19:59:21.890Z,5.70
2022-11-21T20:01:52.810Z,5.70
2022-11-21T20:04:21.819Z,5.80
2022-11-21T20:06:50.415Z,5.80
2022-11-21T20:09:21.972Z,5.90
2022-11-21T20:11:53.798Z,5.90
2022-11-21T20:14:23.182Z,5.90
2022-11-21T20:16:53.923Z,6.00
2022-11-21T20:19:26.904Z,6.00
2022-11-21T20:21:57.122Z,6.10
2022-11-21T20:24:25.611Z,6.10
2022-11-21T20:26:55.619Z,6.10
2022-11-21T20:29:24.165Z,6.20
2022-11-21T20:31:52.823Z,6.20
2022-11-21T20:34:21.336Z,6.20
2022-11-21T20:36:51.176Z,6.10
2022-11-21T20:39:21.471Z,6.10
2022-11-21T20:41:50.066Z,6.10
2022-11-21T20:47:11.042Z,6.10
2022-11-21T20:49:39.592Z,6.20
2022-11-21T20:54:56.621Z,6.20
2022-11-21T20:57:27.685Z,6.20
2022-11-21T20:59:57.774Z,6.20
2022-11-21T21:02:26.352Z,6.20
2022-11-21T21:04:54.898Z,6.30
2022-11-21T21:07:23.483Z,6.30
2022-11-21T21:09:53.511Z,6.20
2022-11-21T21:12:22.044Z,6.40
2022-11-21T21:14:50.723Z,6.50
2022-11-21T21:17:20.643Z,6.50
2022-11-21T21:19:49.392Z,6.50
2022-11-21T21:22:17.906Z,6.50
2022-11-21T21:24:46.449Z,6.50
2022-11-21T21:27:15.046Z,6.50
2022-11-21T21:29:43.551Z,6.50
2022-11-21T21:32:12.228Z,6.50
2022-11-21T21:34:45.322Z,6.40
2022-11-21T21:37:13.866Z,6.50
2022-11-21T21:39:42.390Z,6.50
2022-11-21T21:42:11.083Z,6.60
2022-11-21T21:44:39.970Z,6.60
2022-11-21T21:47:11.373Z,6.60
2022-11-21T21:49:41.516Z,6.70
2022-11-21T21:52:13.478Z,6.70
2022-11-21T21:54:42.409Z,6.70
2022-11-21T21:57:10.989Z,6.70
2022-11-21T21:59:39.558Z,6.70
2022-11-21T22:02:08.738Z,6.70
2022-11-21T22:04:37.255Z,6.70
2022-11-21T22:07:08.796Z,6.70
2022-11-21T22:09:37.670Z,6.70
2022-11-21T22:12:06.955Z,6.80
2022-11-21T22:14:35.519Z,6.80
2022-11-21T22:17:03.996Z,6.80
2022-11-21T22:19:32.519Z,6.80
2022-11-21T22:22:01.115Z,6.90
2022-11-21T22:24:31.130Z,6.80
2022-11-21T22:26:59.792Z,6.90
2022-11-21T22:29:28.666Z,6.90
2022-11-21T22:31:57.394Z,6.90
2022-11-21T22:34:26.696Z,6.90
2022-11-21T22:36:55.225Z,6.80
2022-11-21T22:39:23.760Z,6.70
2022-11-21T22:41:59.560Z,6.60
2022-11-21T22:44:28.985Z,6.40
2022-11-21T22:46:57.773Z,6.40
2022-11-21T22:49:26.297Z,6.30
2022-11-21T22:51:54.880Z,6.30
2022-11-21T22:54:23.471Z,6.40
2022-11-21T22:56:53.484Z,6.40
2022-11-21T22:59:22.035Z,6.50
2022-11-21T23:01:50.832Z,6.50
2022-11-21T23:04:19.446Z,6.50
2022-11-21T23:06:47.975Z,6.60
2022-11-21T23:09:16.639Z,6.50
2022-11-21T23:11:45.176Z,6.60
2022-11-21T23:14:15.080Z,6.60
2022-11-21T23:16:43.599Z,6.60
2022-11-21T23:19:12.058Z,6.60
2022-11-21T23:21:40.953Z,6.60
2022-11-21T23:24:09.985Z,6.60
2022-11-21T23:26:38.814Z,6.50
2022-11-21T23:29:09.034Z,6.50
2022-11-21T23:31:39.214Z,6.50
2022-11-21T23:34:11.123Z,6.50
2022-11-21T23:36:39.706Z,6.70
2022-11-21T23:39:08.448Z,6.50
2022-11-21T23:41:37.495Z,6.50
2022-11-21T23:44:06.260Z,6.50
2022-11-21T23:46:34.720Z,6.50
2022-11-21T23:49:05.511Z,6.50
2022-11-21T23:51:34.177Z,6.40
2022-11-21T23:54:02.985Z,6.30
2022-11-21T23:56:31.654Z,6.20
2022-11-21T23:59:00.432Z,6.30
